Time;durP1;ratioP1;P1;durP2;ratioP2;P2;SDS_P1;SDS_P2;PMS_P1;PMS_P2;Temp;Humidity;BMP_temperature;BMP_pressure;BME280_temperature;BME280_humidity;BME280_pressure;Samples;Min_cycle;Max_cycle;Signal;HPM_P1;HPM_P2
2022/12/16 00:01:06;;;;;;;87.23;25.90;;;;;;;-145.69;100.00;52771.16;5094666;28;20281;-79
2022/12/16 00:03:34;;;;;;;98.80;28.27;;;;;;;-145.69;100.00;52751.34;5094535;28;20194;-78
2022/12/16 00:06:02;;;;;;;87.47;27.57;;;;;;;-145.69;100.00;52781.06;5094128;28;20198;-79
2022/12/16 00:08:29;;;;;;;96.53;27.23;;;;;;;-145.69;100.00;52757.31;5094588;28;20232;-79
2022/12/16 00:10:57;;;;;;;131.30;26.17;;;;;;;-145.69;100.00;52745.41;5094536;28;20202;-80
2022/12/16 00:13:24;;;;;;;132.87;27.73;;;;;;;-145.69;100.00;52808.78;5094392;28;20198;-79
2022/12/16 00:15:51;;;;;;;86.30;26.90;;;;;;;-145.69;100.00;52763.25;5094454;28;20233;-79
2022/12/16 00:18:18;;;;;;;95.33;26.13;;;;;;;-145.69;100.00;52777.09;5093975;28;20206;-79
2022/12/16 00:20:47;;;;;;;102.23;26.40;;;;;;;-145.69;100.00;52765.22;5094520;28;20595;-79
2022/12/16 00:23:14;;;;;;;92.80;26.67;;;;;;;-145.69;100.00;52743.44;5094327;28;20210;-79
2022/12/16 00:25:42;;;;;;;103.63;27.33;;;;;;;-145.69;100.00;52733.53;5094475;28;20229;-80
2022/12/16 00:28:09;;;;;;;96.50;25.17;;;;;;;-145.69;100.00;52737.50;5094308;28;20202;-80
2022/12/16 00:30:36;;;;;;;95.07;27.47;;;;;;;-145.69;100.00;52773.16;5094346;28;20209;-79
2022/12/16 00:33:03;;;;;;;86.63;25.60;;;;;;;-145.69;100.00;52796.91;5092697;28;20236;-79
2022/12/16 00:35:30;;;;;;;116.07;30.73;;;;;;;-145.69;100.00;52781.06;5094021;28;20253;-79
2022/12/16 00:37:58;;;;;;;105.00;26.73;;;;;;;-145.69;100.00;52733.53;5093925;28;20259;-79
2022/12/16 00:40:25;;;;;;;90.70;27.57;;;;;;;-145.69;100.00;52745.41;5093060;28;20198;-79
2022/12/16 00:42:52;;;;;;;102.37;26.87;;;;;;;-145.69;100.00;52771.16;5093773;28;20210;-79
2022/12/16 00:45:18;;;;;;;83.90;25.97;;;;;;;-145.69;100.00;52745.41;5093809;28;20679;-79
2022/12/16 00:47:45;;;;;;;81.57;23.97;;;;;;;-145.69;100.00;52753.34;5093675;28;20198;-79
2022/12/16 00:50:11;;;;;;;80.37;24.17;;;;;;;-145.69;100.00;52729.56;5093987;28;20202;-79
2022/12/16 00:52:38;;;;;;;86.17;25.53;;;;;;;-145.69;100.00;52792.94;5093911;28;20206;-79
2022/12/16 00:55:07;;;;;;;83.37;25.10;;;;;;;-145.69;100.00;52783.06;5093483;28;20218;-81
2022/12/16 00:57:34;;;;;;;105.20;26.57;;;;;;;-145.69;100.00;52763.25;5093787;28;20201;-79
2022/12/16 01:00:02;;;;;;;92.93;25.80;;;;;;;-145.69;100.00;52753.34;5093598;28;20206;-79
2022/12/16 01:02:29;;;;;;;97.20;26.27;;;;;;;-145.69;100.00;52773.16;5093754;28;20213;-79
2022/12/16 01:04:55;;;;;;;95.30;28.07;;;;;;;-145.69;100.00;52783.06;5093494;28;20546;-79
2022/12/16 01:07:22;;;;;;;105.63;26.97;;;;;;;-145.69;100.00;52777.09;5093607;28;20198;-79
2022/12/16 01:09:48;;;;;;;85.93;23.77;;;;;;;-145.69;100.00;52781.06;5093479;28;20198;-79
2022/12/16 01:12:16;;;;;;;86.93;23.43;;;;;;;-145.69;100.00;52757.31;5093407;28;20568;-79
2022/12/16 01:14:43;;;;;;;79.13;23.60;;;;;;;-145.69;100.00;52757.31;5093319;28;20209;-79
2022/12/16 01:17:09;;;;;;;77.67;24.23;;;;;;;-145.69;100.00;52753.34;5093293;28;20202;-79
2022/12/16 01:19:36;;;;;;;78.70;24.50;;;;;;;-145.69;100.00;52761.25;5093437;28;20221;-79
2022/12/16 01:22:03;;;;;;;81.27;24.10;;;;;;;-145.69;100.00;52792.94;5093163;28;20198;-79
2022/12/16 01:24:29;;;;;;;84.07;23.20;;;;;;;-145.69;100.00;52761.25;5092664;28;20192;-79
2022/12/16 01:26:56;;;;;;;80.37;24.57;;;;;;;-145.69;100.00;52755.31;5093074;28;20206;-79
2022/12/16 01:29:24;;;;;;;80.20;23.93;;;;;;;-145.69;100.00;52830.59;5092986;28;20198;-79
2022/12/16 01:31:51;;;;;;;75.90;22.60;;;;;;;-145.69;100.00;52743.44;5082064;28;20199;-80
2022/12/16 01:34:17;;;;;;;73.40;21.57;;;;;;;-145.69;100.00;52747.41;5073013;28;20343;-79
2022/12/16 01:36:44;;;;;;;77.30;22.00;;;;;;;-145.69;100.00;52749.38;5091164;28;20234;-80
2022/12/16 01:39:12;;;;;;;67.97;22.43;;;;;;;-145.69;100.00;52787.00;5092817;28;20564;-79
2022/12/16 01:41:39;;;;;;;76.63;21.90;;;;;;;-145.69;100.00;52745.41;5092952;28;20619;-79
2022/12/16 01:44:16;;;;;;;69.83;22.37;;;;;;;-145.69;100.00;52785.03;5092960;28;20228;-80
2022/12/16 01:46:49;;;;;;;78.63;23.13;;;;;;;-145.69;100.00;52777.09;5093384;28;20224;-79
2022/12/16 01:49:22;;;;;;;75.67;21.13;;;;;;;-145.69;100.00;52765.22;5092719;28;20206;-79
2022/12/16 01:51:49;;;;;;;66.33;21.43;;;;;;;-145.69;100.00;52777.09;5093882;28;20238;-80
2022/12/16 01:54:20;;;;;;;62.30;20.00;;;;;;;-145.69;100.00;52761.25;5097098;28;20390;-80
2022/12/16 01:56:51;;;;;;;72.80;21.30;;;;;;;-145.69;100.00;52749.38;5096816;28;20236;-79
2022/12/16 01:59:19;;;;;;;73.20;21.40;;;;;;;-145.69;100.00;52779.09;5097163;28;20627;-79
2022/12/16 02:01:47;;;;;;;68.70;21.13;;;;;;;-145.69;100.00;52745.41;5096899;28;20221;-79
2022/12/16 02:04:14;;;;;;;74.73;21.53;;;;;;;-145.69;100.00;52769.19;5097013;28;20206;-80
2022/12/16 02:06:40;;;;;;;66.03;20.60;;;;;;;-145.69;100.00;52749.38;5096538;28;20560;-81
2022/12/16 02:09:11;;;;;;;63.97;20.67;;;;;;;-145.69;100.00;52763.25;5097099;28;20209;-79
2022/12/16 02:12:10;;;;;;;62.73;21.50;;;;;;;-145.69;100.00;52741.47;5096963;28;20194;-80
2022/12/16 02:15:02;;;;;;;70.07;20.50;;;;;;;-145.69;100.00;52753.34;5076581;28;20203;-79
2022/12/16 02:17:37;;;;;;;76.70;24.83;;;;;;;-145.69;100.00;52785.03;5076683;28;20201;-79
2022/12/16 02:20:43;;;;;;;82.53;25.90;;;;;;;-145.69;100.00;52753.34;5076684;28;20205;-80
2022/12/16 02:23:38;;;;;;;100.57;32.42;;;;;;;-145.69;100.00;52808.78;5069800;28;20499;-79
2022/12/16 02:26:33;;;;;;;92.50;28.77;;;;;;;-145.69;100.00;52745.41;5092267;28;20198;-80
2022/12/16 02:29:24;;;;;;;107.03;31.27;;;;;;;-145.69;100.00;52771.16;5096625;28;20198;-82
2022/12/16 02:31:59;;;;;;;83.40;27.30;;;;;;;-145.69;100.00;52761.25;5096313;28;20198;-80
2022/12/16 02:34:32;;;;;;;78.00;26.93;;;;;;;-145.69;100.00;52753.34;5096623;28;20204;-79
2022/12/16 02:37:12;;;;;;;76.80;27.03;;;;;;;-145.69;100.00;52733.53;5095797;28;20238;-79
2022/12/16 02:39:42;;;;;;;121.30;27.47;;;;;;;-145.69;100.00;52769.19;5096364;28;20657;-79
2022/12/16 02:42:16;;;;;;;85.80;27.97;;;;;;;-145.69;100.00;52773.16;5096046;28;20198;-79
2022/12/16 02:44:53;;;;;;;100.80;27.63;;;;;;;-145.69;100.00;52751.34;5096497;28;20209;-79
2022/12/16 02:47:21;;;;;;;113.83;27.50;;;;;;;-145.69;100.00;52741.47;5096203;28;20205;-79
2022/12/16 02:49:50;;;;;;;109.37;29.70;;;;;;;-145.69;100.00;52745.41;5095755;28;20194;-79
2022/12/16 02:52:22;;;;;;;94.40;29.60;;;;;;;-145.69;100.00;52753.34;5095903;28;20210;-80
2022/12/16 02:54:51;;;;;;;104.53;29.03;;;;;;;-145.69;100.00;52804.84;5096111;28;20197;-79
2022/12/16 02:57:33;;;;;;;94.40;28.53;;;;;;;-145.69;100.00;52785.03;5095948;28;20226;-79
2022/12/16 03:00:04;;;;;;;135.70;31.77;;;;;;;-145.69;100.00;52779.09;5095961;28;20305;-80
2022/12/16 03:02:39;;;;;;;106.27;30.67;;;;;;;-145.69;100.00;52767.19;5095521;28;20202;-79
2022/12/16 03:05:11;;;;;;;107.17;30.23;;;;;;;-145.69;100.00;52800.88;5094747;28;20224;-79
2022/12/16 03:07:40;;;;;;;141.87;30.67;;;;;;;-145.69;100.00;52769.19;5096038;28;20194;-81
2022/12/16 03:10:11;;;;;;;117.97;29.33;;;;;;;-145.69;100.00;52761.25;5095393;28;20247;-80
2022/12/16 03:12:40;;;;;;;232.00;33.93;;;;;;;-145.69;100.00;52759.28;5095581;28;20213;-82
2022/12/16 03:15:08;;;;;;;155.33;30.97;;;;;;;-145.69;100.00;52765.22;5095342;28;20202;-79
2022/12/16 03:17:37;;;;;;;135.27;30.17;;;;;;;-145.69;100.00;52775.13;5095306;28;20205;-80
2022/12/16 03:20:10;;;;;;;100.73;29.90;;;;;;;-145.69;100.00;52779.09;5095409;28;20198;-80
2022/12/16 03:22:38;;;;;;;86.43;28.00;;;;;;;-145.69;100.00;52777.09;5095498;28;20213;-79
2022/12/16 03:25:07;;;;;;;102.57;28.77;;;;;;;-145.69;100.00;52751.34;5095104;28;20205;-79
2022/12/16 03:27:40;;;;;;;92.93;28.97;;;;;;;-145.69;100.00;52787.00;5090126;28;20249;-79
2022/12/16 03:30:12;;;;;;;95.63;28.07;;;;;;;-145.69;100.00;52755.31;5074824;28;20214;-79
2022/12/16 03:32:46;;;;;;;86.93;26.87;;;;;;;-145.69;100.00;52787.00;5092638;28;20198;-79
2022/12/16 03:35:19;;;;;;;74.53;25.80;;;;;;;-145.69;100.00;52757.31;5095021;28;20212;-79
2022/12/16 03:37:49;;;;;;;77.80;27.80;;;;;;;-145.69;100.00;52745.41;5095213;28;20198;-79
2022/12/16 03:40:17;;;;;;;84.57;26.23;;;;;;;-145.69;100.00;52787.00;5095308;28;20200;-79
2022/12/16 03:42:44;;;;;;;80.47;25.43;;;;;;;-145.69;100.00;52773.16;5094598;28;20198;-80
2022/12/16 03:45:16;;;;;;;74.40;26.03;;;;;;;-145.69;100.00;52757.31;5094856;28;20656;-79
2022/12/16 03:47:49;;;;;;;77.47;25.67;;;;;;;-145.69;100.00;52775.13;5094959;28;20247;-80
2022/12/16 03:50:17;;;;;;;81.27;25.50;;;;;;;-145.69;100.00;52796.91;5094966;28;20198;-80
2022/12/16 03:52:44;;;;;;;68.07;23.13;;;;;;;-145.69;100.00;52759.28;5094773;28;20205;-79
2022/12/16 03:55:10;;;;;;;71.17;24.27;;;;;;;-145.69;100.00;52761.25;5094293;28;20193;-79
2022/12/16 03:57:38;;;;;;;66.27;22.60;;;;;;;-145.69;100.00;52802.84;5094581;28;20226;-79
2022/12/16 04:00:05;;;;;;;71.70;23.87;;;;;;;-145.69;100.00;52773.16;5094784;28;20209;-79
2022/12/16 04:02:32;;;;;;;70.90;24.70;;;;;;;-145.69;100.00;52755.31;5094576;28;20201;-79
2022/12/16 04:04:59;;;;;;;67.30;24.23;;;;;;;-145.69;100.00;52777.09;5094584;28;20212;-79
2022/12/16 04:07:26;;;;;;;75.43;24.53;;;;;;;-145.69;100.00;52773.16;5094139;28;20619;-79
2022/12/16 04:09:53;;;;;;;73.47;24.63;;;;;;;-145.69;100.00;52783.06;5094748;28;20217;-79
2022/12/16 04:26:19;;;;;;;65.00;23.10;;;;;;;-145.69;100.00;52781.06;5094117;28;20201;-79
2022/12/16 04:28:46;;;;;;;56.97;22.20;;;;;;;-145.69;100.00;52765.22;5094346;28;20205;-79
2022/12/16 04:31:12;;;;;;;58.47;21.27;;;;;;;-145.69;100.00;52777.09;5094021;28;20193;-79
